sensor_id;sensor_type;location;lat;lon;timestamp;P1;durP1;ratioP1;P2;durP2;ratioP2
28028;SDS011;15345;59.364;18.016;2023-09-30T00:00:01;10.32;;;8.45;;
28028;SDS011;15345;59.364;18.016;2023-09-30T00:01:21;12.00;;;8.95;;
28028;SDS011;15345;59.364;18.016;2023-09-30T00:02:41;18.52;;;9.30;;
28028;SDS011;15345;59.364;18.016;2023-09-30T00:04:00;16.55;;;9.20;;
28028;SDS011;15345;59.364;18.016;2023-09-30T00:05:20;15.38;;;9.30;;
28028;SDS011;15345;59.364;18.016;2023-09-30T00:06:39;13.50;;;9.00;;
28028;SDS011;15345;59.364;18.016;2023-09-30T00:07:58;10.32;;;9.05;;
28028;SDS011;15345;59.364;18.016;2023-09-30T00:09:17;12.80;;;8.40;;
28028;SDS011;15345;59.364;18.016;2023-09-30T00:10:36;10.60;;;8.52;;
28028;SDS011;15345;59.364;18.016;2023-09-30T00:11:55;10.73;;;8.20;;
28028;SDS011;15345;59.364;18.016;2023-09-30T00:13:14;17.67;;;9.63;;
28028;SDS011;15345;59.364;18.016;2023-09-30T00:14:33;14.48;;;9.27;;
28028;SDS011;15345;59.364;18.016;2023-09-30T00:15:52;17.30;;;9.57;;
28028;SDS011;15345;59.364;18.016;2023-09-30T00:17:11;15.07;;;8.88;;
28028;SDS011;15345;59.364;18.016;2023-09-30T00:18:30;14.10;;;9.45;;
28028;SDS011;15345;59.364;18.016;2023-09-30T00:19:49;12.93;;;8.73;;
28028;SDS011;15345;59.364;18.016;2023-09-30T00:21:08;16.27;;;9.55;;
28028;SDS011;15345;59.364;18.016;2023-09-30T00:22:27;14.73;;;9.18;;
28028;SDS011;15345;59.364;18.016;2023-09-30T00:23:47;13.60;;;8.15;;
28028;SDS011;15345;59.364;18.016;2023-09-30T00:25:06;15.20;;;9.65;;
28028;SDS011;15345;59.364;18.016;2023-09-30T00:26:25;19.08;;;9.27;;
28028;SDS011;15345;59.364;18.016;2023-09-30T00:27:44;16.33;;;8.65;;
28028;SDS011;15345;59.364;18.016;2023-09-30T00:29:03;17.30;;;8.95;;
28028;SDS011;15345;59.364;18.016;2023-09-30T00:30:23;14.27;;;8.88;;
28028;SDS011;15345;59.364;18.016;2023-09-30T00:31:42;14.80;;;8.93;;
28028;SDS011;15345;59.364;18.016;2023-09-30T00:33:01;17.85;;;9.05;;
28028;SDS011;15345;59.364;18.016;2023-09-30T00:34:20;16.83;;;8.85;;
28028;SDS011;15345;59.364;18.016;2023-09-30T00:35:39;16.67;;;8.60;;
28028;SDS011;15345;59.364;18.016;2023-09-30T00:36:59;13.40;;;8.65;;
28028;SDS011;15345;59.364;18.016;2023-09-30T00:38:18;12.35;;;8.32;;
28028;SDS011;15345;59.364;18.016;2023-09-30T00:39:37;14.82;;;9.10;;
28028;SDS011;15345;59.364;18.016;2023-09-30T00:40:56;16.65;;;8.77;;
28028;SDS011;15345;59.364;18.016;2023-09-30T00:42:15;15.02;;;8.18;;
28028;SDS011;15345;59.364;18.016;2023-09-30T00:43:34;14.93;;;8.35;;
28028;SDS011;15345;59.364;18.016;2023-09-30T00:44:53;10.77;;;7.65;;
28028;SDS011;15345;59.364;18.016;2023-09-30T00:46:31;14.45;;;8.82;;
28028;SDS011;15345;59.364;18.016;2023-09-30T00:47:50;11.73;;;7.07;;
28028;SDS011;15345;59.364;18.016;2023-09-30T00:49:10;18.45;;;7.90;;
28028;SDS011;15345;59.364;18.016;2023-09-30T00:50:29;14.95;;;7.80;;
28028;SDS011;15345;59.364;18.016;2023-09-30T00:51:48;14.23;;;7.88;;
28028;SDS011;15345;59.364;18.016;2023-09-30T00:53:07;17.33;;;7.75;;
28028;SDS011;15345;59.364;18.016;2023-09-30T00:54:26;16.08;;;7.78;;
28028;SDS011;15345;59.364;18.016;2023-09-30T00:55:45;17.77;;;7.13;;
28028;SDS011;15345;59.364;18.016;2023-09-30T00:57:05;10.38;;;7.07;;
28028;SDS011;15345;59.364;18.016;2023-09-30T00:58:25;10.15;;;6.32;;
28028;SDS011;15345;59.364;18.016;2023-09-30T00:59:46;14.93;;;6.95;;
28028;SDS011;15345;59.364;18.016;2023-09-30T01:01:05;10.90;;;6.93;;
28028;SDS011;15345;59.364;18.016;2023-09-30T01:02:25;8.40;;;6.50;;
28028;SDS011;15345;59.364;18.016;2023-09-30T01:03:45;10.27;;;5.90;;
28028;SDS011;15345;59.364;18.016;2023-09-30T01:05:04;12.68;;;6.35;;
28028;SDS011;15345;59.364;18.016;2023-09-30T01:06:23;5.93;;;4.78;;
28028;SDS011;15345;59.364;18.016;2023-09-30T01:07:42;6.45;;;4.82;;
28028;SDS011;15345;59.364;18.016;2023-09-30T01:09:01;6.40;;;4.55;;
28028;SDS011;15345;59.364;18.016;2023-09-30T01:10:21;6.57;;;4.60;;
28028;SDS011;15345;59.364;18.016;2023-09-30T01:11:40;12.77;;;5.32;;
28028;SDS011;15345;59.364;18.016;2023-09-30T01:12:59;6.15;;;4.70;;
28028;SDS011;15345;59.364;18.016;2023-09-30T01:14:28;7.45;;;5.20;;
28028;SDS011;15345;59.364;18.016;2023-09-30T01:15:47;5.35;;;4.75;;
28028;SDS011;15345;59.364;18.016;2023-09-30T01:17:06;7.60;;;5.05;;
28028;SDS011;15345;59.364;18.016;2023-09-30T01:18:32;4.63;;;4.20;;
28028;SDS011;15345;59.364;18.016;2023-09-30T01:19:51;6.97;;;4.78;;
28028;SDS011;15345;59.364;18.016;2023-09-30T01:21:11;5.07;;;4.10;;
28028;SDS011;15345;59.364;18.016;2023-09-30T01:22:31;5.93;;;4.43;;
28028;SDS011;15345;59.364;18.016;2023-09-30T01:23:50;5.43;;;4.13;;
28028;SDS011;15345;59.364;18.016;2023-09-30T01:25:10;5.72;;;3.95;;
28028;SDS011;15345;59.364;18.016;2023-09-30T01:26:30;5.95;;;4.45;;
28028;SDS011;15345;59.364;18.016;2023-09-30T01:27:48;7.15;;;4.13;;
28028;SDS011;15345;59.364;18.016;2023-09-30T01:29:09;4.72;;;4.05;;
28028;SDS011;15345;59.364;18.016;2023-09-30T01:30:29;7.85;;;4.75;;
28028;SDS011;15345;59.364;18.016;2023-09-30T01:31:50;7.18;;;4.53;;
28028;SDS011;15345;59.364;18.016;2023-09-30T01:33:09;9.02;;;5.30;;
28028;SDS011;15345;59.364;18.016;2023-09-30T01:34:28;8.00;;;4.18;;
28028;SDS011;15345;59.364;18.016;2023-09-30T01:35:47;3.72;;;3.40;;
28028;SDS011;15345;59.364;18.016;2023-09-30T01:37:06;3.63;;;3.03;;
28028;SDS011;15345;59.364;18.016;2023-09-30T01:38:25;6.40;;;2.75;;
28028;SDS011;15345;59.364;18.016;2023-09-30T01:39:44;5.45;;;2.90;;
28028;SDS011;15345;59.364;18.016;2023-09-30T01:41:04;3.10;;;2.90;;
28028;SDS011;15345;59.364;18.016;2023-09-30T01:42:23;3.70;;;2.90;;
28028;SDS011;15345;59.364;18.016;2023-09-30T01:43:42;3.60;;;2.80;;
28028;SDS011;15345;59.364;18.016;2023-09-30T01:45:02;5.55;;;2.75;;
28028;SDS011;15345;59.364;18.016;2023-09-30T01:46:21;3.85;;;2.40;;
28028;SDS011;15345;59.364;18.016;2023-09-30T01:47:41;2.60;;;2.40;;
28028;SDS011;15345;59.364;18.016;2023-09-30T01:49:00;6.45;;;2.40;;
28028;SDS011;15345;59.364;18.016;2023-09-30T01:50:19;2.70;;;2.30;;
28028;SDS011;15345;59.364;18.016;2023-09-30T01:51:38;3.92;;;2.50;;
28028;SDS011;15345;59.364;18.016;2023-09-30T01:52:57;2.30;;;1.80;;
28028;SDS011;15345;59.364;18.016;2023-09-30T01:54:16;2.45;;;1.85;;
28028;SDS011;15345;59.364;18.016;2023-09-30T01:55:35;1.70;;;1.60;;
28028;SDS011;15345;59.364;18.016;2023-09-30T01:56:55;2.67;;;2.25;;
28028;SDS011;15345;59.364;18.016;2023-09-30T01:58:14;2.47;;;1.70;;
28028;SDS011;15345;59.364;18.016;2023-09-30T01:59:33;4.05;;;1.95;;
28028;SDS011;15345;59.364;18.016;2023-09-30T02:00:52;2.13;;;1.92;;
28028;SDS011;15345;59.364;18.016;2023-09-30T02:02:11;3.35;;;2.10;;
28028;SDS011;15345;59.364;18.016;2023-09-30T02:03:30;3.55;;;2.13;;
28028;SDS011;15345;59.364;18.016;2023-09-30T02:04:49;2.70;;;2.13;;
28028;SDS011;15345;59.364;18.016;2023-09-30T02:06:08;5.65;;;1.88;;
28028;SDS011;15345;59.364;18.016;2023-09-30T02:07:27;2.47;;;2.22;;
28028;SDS011;15345;59.364;18.016;2023-09-30T02:08:46;3.35;;;2.13;;
28028;SDS011;15345;59.364;18.016;2023-09-30T02:10:05;3.13;;;1.85;;
28028;SDS011;15345;59.364;18.016;2023-09-30T02:11:24;3.85;;;2.10;;
28028;SDS011;15345;59.364;18.016;2023-09-30T02:12:44;4.20;;;2.30;;
28028;SDS011;15345;59.364;18.016;2023-09-30T02:14:03;3.55;;;2.10;;
28028;SDS011;15345;59.364;18.016;2023-09-30T02:15:24;3.30;;;2.00;;
28028;SDS011;15345;59.364;18.016;2023-09-30T02:16:43;6.50;;;2.47;;
28028;SDS011;15345;59.364;18.016;2023-09-30T02:18:02;2.95;;;2.17;;
28028;SDS011;15345;59.364;18.016;2023-09-30T02:19:22;2.45;;;2.22;;
28028;SDS011;15345;59.364;18.016;2023-09-30T02:20:41;3.60;;;2.40;;
28028;SDS011;15345;59.364;18.016;2023-09-30T02:22:00;7.72;;;2.50;;
28028;SDS011;15345;59.364;18.016;2023-09-30T02:23:19;5.63;;;2.28;;
28028;SDS011;15345;59.364;18.016;2023-09-30T02:24:39;2.78;;;2.00;;
28028;SDS011;15345;59.364;18.016;2023-09-30T02:25:59;6.47;;;2.22;;
28028;SDS011;15345;59.364;18.016;2023-09-30T02:27:18;5.32;;;2.55;;
28028;SDS011;15345;59.364;18.016;2023-09-30T02:28:37;3.90;;;2.30;;
28028;SDS011;15345;59.364;18.016;2023-09-30T02:29:56;4.53;;;2.15;;
28028;SDS011;15345;59.364;18.016;2023-09-30T02:31:15;5.38;;;2.60;;
28028;SDS011;15345;59.364;18.016;2023-09-30T02:32:39;5.70;;;2.30;;
28028;SDS011;15345;59.364;18.016;2023-09-30T02:34:01;6.40;;;2.95;;
28028;SDS011;15345;59.364;18.016;2023-09-30T02:35:21;5.07;;;2.25;;
28028;SDS011;15345;59.364;18.016;2023-09-30T02:36:40;4.82;;;2.17;;
28028;SDS011;15345;59.364;18.016;2023-09-30T02:37:59;5.47;;;2.13;;
28028;SDS011;15345;59.364;18.016;2023-09-30T02:39:19;6.70;;;2.85;;
28028;SDS011;15345;59.364;18.016;2023-09-30T02:40:38;6.85;;;2.83;;
28028;SDS011;15345;59.364;18.016;2023-09-30T02:41:59;5.13;;;2.35;;
28028;SDS011;15345;59.364;18.016;2023-09-30T02:43:18;6.03;;;2.50;;
28028;SDS011;15345;59.364;18.016;2023-09-30T02:44:37;5.70;;;2.92;;
28028;SDS011;15345;59.364;18.016;2023-09-30T02:45:56;4.00;;;2.33;;
28028;SDS011;15345;59.364;18.016;2023-09-30T02:47:15;6.75;;;2.35;;
28028;SDS011;15345;59.364;18.016;2023-09-30T02:48:33;5.90;;;2.85;;
28028;SDS011;15345;59.364;18.016;2023-09-30T02:49:52;6.65;;;2.88;;
28028;SDS011;15345;59.364;18.016;2023-09-30T02:51:11;5.03;;;3.08;;
28028;SDS011;15345;59.364;18.016;2023-09-30T02:52:30;6.25;;;2.47;;
28028;SDS011;15345;59.364;18.016;2023-09-30T02:53:50;5.07;;;2.75;;
28028;SDS011;15345;59.364;18.016;2023-09-30T02:55:09;5.45;;;2.50;;
28028;SDS011;15345;59.364;18.016;2023-09-30T02:56:28;5.40;;;2.78;;
28028;SDS011;15345;59.364;18.016;2023-09-30T02:57:48;4.82;;;2.92;;
28028;SDS011;15345;59.364;18.016;2023-09-30T02:59:08;8.57;;;3.42;;
28028;SDS011;15345;59.364;18.016;2023-09-30T03:00:27;7.03;;;2.67;;
28028;SDS011;15345;59.364;18.016;2023-09-30T03:01:46;7.47;;;3.03;;
28028;SDS011;15345;59.364;18.016;2023-09-30T03:03:05;8.00;;;2.97;;
28028;SDS011;15345;59.364;18.016;2023-09-30T03:04:25;5.55;;;3.03;;
28028;SDS011;15345;59.364;18.016;2023-09-30T03:05:47;5.63;;;2.63;;
28028;SDS011;15345;59.364;18.016;2023-09-30T03:07:07;4.93;;;2.88;;
28028;SDS011;15345;59.364;18.016;2023-09-30T03:08:27;6.00;;;2.65;;
28028;SDS011;15345;59.364;18.016;2023-09-30T03:09:46;6.55;;;2.80;;
28028;SDS011;15345;59.364;18.016;2023-09-30T03:11:05;6.68;;;2.83;;
28028;SDS011;15345;59.364;18.016;2023-09-30T03:12:24;7.50;;;2.92;;
28028;SDS011;15345;59.364;18.016;2023-09-30T03:13:44;5.18;;;2.42;;
28028;SDS011;15345;59.364;18.016;2023-09-30T03:15:03;7.50;;;2.70;;
28028;SDS011;15345;59.364;18.016;2023-09-30T03:16:23;7.43;;;2.95;;
28028;SDS011;15345;59.364;18.016;2023-09-30T03:17:43;6.97;;;2.72;;
28028;SDS011;15345;59.364;18.016;2023-09-30T03:19:02;6.53;;;3.00;;
28028;SDS011;15345;59.364;18.016;2023-09-30T03:20:26;6.65;;;2.85;;
28028;SDS011;15345;59.364;18.016;2023-09-30T03:21:45;9.15;;;2.88;;
28028;SDS011;15345;59.364;18.016;2023-09-30T03:23:04;5.32;;;2.92;;
28028;SDS011;15345;59.364;18.016;2023-09-30T03:24:24;8.48;;;3.00;;
28028;SDS011;15345;59.364;18.016;2023-09-30T03:25:43;5.85;;;2.63;;
28028;SDS011;15345;59.364;18.016;2023-09-30T03:27:02;6.95;;;3.03;;
28028;SDS011;15345;59.364;18.016;2023-09-30T03:28:21;9.75;;;3.35;;
28028;SDS011;15345;59.364;18.016;2023-09-30T03:29:40;5.65;;;2.70;;
28028;SDS011;15345;59.364;18.016;2023-09-30T03:30:59;6.45;;;2.30;;
28028;SDS011;15345;59.364;18.016;2023-09-30T03:32:18;9.32;;;3.35;;
28028;SDS011;15345;59.364;18.016;2023-09-30T03:33:37;6.47;;;2.60;;
28028;SDS011;15345;59.364;18.016;2023-09-30T03:34:56;10.90;;;2.72;;
28028;SDS011;15345;59.364;18.016;2023-09-30T03:36:18;4.57;;;2.42;;
28028;SDS011;15345;59.364;18.016;2023-09-30T03:37:37;8.23;;;2.70;;
28028;SDS011;15345;59.364;18.016;2023-09-30T03:38:56;9.70;;;3.20;;
28028;SDS011;15345;59.364;18.016;2023-09-30T03:40:18;6.40;;;2.92;;
28028;SDS011;15345;59.364;18.016;2023-09-30T03:41:46;7.55;;;2.78;;
28028;SDS011;15345;59.364;18.016;2023-09-30T03:43:05;5.38;;;2.53;;
28028;SDS011;15345;59.364;18.016;2023-09-30T03:44:24;5.90;;;2.50;;
28028;SDS011;15345;59.364;18.016;2023-09-30T03:45:43;5.38;;;2.30;;
28028;SDS011;15345;59.364;18.016;2023-09-30T03:47:02;8.70;;;2.80;;
28028;SDS011;15345;59.364;18.016;2023-09-30T03:48:21;8.30;;;3.25;;
28028;SDS011;15345;59.364;18.016;2023-09-30T03:49:41;8.18;;;3.00;;
28028;SDS011;15345;59.364;18.016;2023-09-30T03:51:07;6.45;;;3.05;;
28028;SDS011;15345;59.364;18.016;2023-09-30T03:52:27;5.15;;;2.90;;
28028;SDS011;15345;59.364;18.016;2023-09-30T03:53:46;6.80;;;3.10;;
28028;SDS011;15345;59.364;18.016;2023-09-30T03:55:06;8.32;;;2.92;;
28028;SDS011;15345;59.364;18.016;2023-09-30T03:56:25;13.52;;;3.55;;
28028;SDS011;15345;59.364;18.016;2023-09-30T03:57:44;9.93;;;3.25;;
28028;SDS011;15345;59.364;18.016;2023-09-30T03:59:06;9.88;;;3.20;;
28028;SDS011;15345;59.364;18.016;2023-09-30T04:00:27;8.88;;;3.78;;
28028;SDS011;15345;59.364;18.016;2023-09-30T04:01:47;6.20;;;3.20;;
28028;SDS011;15345;59.364;18.016;2023-09-30T04:03:06;7.50;;;3.08;;
28028;SDS011;15345;59.364;18.016;2023-09-30T04:04:25;7.25;;;3.20;;
28028;SDS011;15345;59.364;18.016;2023-09-30T04:05:44;6.07;;;3.17;;
28028;SDS011;15345;59.364;18.016;2023-09-30T04:07:03;9.93;;;3.88;;
28028;SDS011;15345;59.364;18.016;2023-09-30T04:08:24;8.75;;;3.05;;
28028;SDS011;15345;59.364;18.016;2023-09-30T04:09:43;9.93;;;3.65;;
28028;SDS011;15345;59.364;18.016;2023-09-30T04:11:02;8.18;;;3.22;;
28028;SDS011;15345;59.364;18.016;2023-09-30T04:12:22;8.95;;;3.47;;
28028;SDS011;15345;59.364;18.016;2023-09-30T04:13:44;8.07;;;3.17;;
28028;SDS011;15345;59.364;18.016;2023-09-30T04:15:03;11.98;;;3.70;;
28028;SDS011;15345;59.364;18.016;2023-09-30T04:16:23;8.95;;;3.30;;
28028;SDS011;15345;59.364;18.016;2023-09-30T04:17:50;10.88;;;4.00;;
28028;SDS011;15345;59.364;18.016;2023-09-30T04:19:11;10.05;;;3.22;;
28028;SDS011;15345;59.364;18.016;2023-09-30T04:20:30;8.23;;;3.45;;
28028;SDS011;15345;59.364;18.016;2023-09-30T04:21:49;10.15;;;3.97;;
28028;SDS011;15345;59.364;18.016;2023-09-30T04:23:08;12.20;;;3.78;;
28028;SDS011;15345;59.364;18.016;2023-09-30T04:24:28;7.32;;;3.22;;
28028;SDS011;15345;59.364;18.016;2023-09-30T04:25:48;9.38;;;3.60;;
28028;SDS011;15345;59.364;18.016;2023-09-30T04:27:08;11.55;;;3.80;;
28028;SDS011;15345;59.364;18.016;2023-09-30T04:28:27;14.02;;;4.22;;
28028;SDS011;15345;59.364;18.016;2023-09-30T04:29:46;9.32;;;3.92;;
28028;SDS011;15345;59.364;18.016;2023-09-30T04:31:05;8.38;;;3.67;;
28028;SDS011;15345;59.364;18.016;2023-09-30T04:32:25;12.18;;;3.78;;
28028;SDS011;15345;59.364;18.016;2023-09-30T04:33:46;11.80;;;4.05;;
28028;SDS011;15345;59.364;18.016;2023-09-30T04:35:04;7.80;;;3.50;;
28028;SDS011;15345;59.364;18.016;2023-09-30T04:36:24;14.18;;;4.25;;
28028;SDS011;15345;59.364;18.016;2023-09-30T04:37:42;12.50;;;4.18;;
28028;SDS011;15345;59.364;18.016;2023-09-30T04:39:02;12.65;;;4.05;;
28028;SDS011;15345;59.364;18.016;2023-09-30T04:40:21;13.70;;;4.10;;
28028;SDS011;15345;59.364;18.016;2023-09-30T04:41:40;13.57;;;3.60;;
28028;SDS011;15345;59.364;18.016;2023-09-30T04:43:02;7.82;;;3.75;;
28028;SDS011;15345;59.364;18.016;2023-09-30T04:44:21;9.32;;;4.13;;
28028;SDS011;15345;59.364;18.016;2023-09-30T04:45:41;14.05;;;3.72;;
28028;SDS011;15345;59.364;18.016;2023-09-30T04:47:00;10.18;;;3.47;;
28028;SDS011;15345;59.364;18.016;2023-09-30T04:48:19;14.38;;;4.10;;
28028;SDS011;15345;59.364;18.016;2023-09-30T04:49:38;10.10;;;4.00;;
28028;SDS011;15345;59.364;18.016;2023-09-30T04:50:57;11.48;;;4.25;;
28028;SDS011;15345;59.364;18.016;2023-09-30T04:52:16;9.85;;;3.55;;
28028;SDS011;15345;59.364;18.016;2023-09-30T04:53:35;15.70;;;4.45;;
28028;SDS011;15345;59.364;18.016;2023-09-30T04:54:54;15.27;;;3.75;;
28028;SDS011;15345;59.364;18.016;2023-09-30T04:56:13;10.70;;;3.83;;
28028;SDS011;15345;59.364;18.016;2023-09-30T04:57:32;10.25;;;4.05;;
28028;SDS011;15345;59.364;18.016;2023-09-30T04:58:51;13.60;;;4.18;;
28028;SDS011;15345;59.364;18.016;2023-09-30T05:00:11;13.75;;;4.10;;
28028;SDS011;15345;59.364;18.016;2023-09-30T05:01:31;12.00;;;4.05;;
28028;SDS011;15345;59.364;18.016;2023-09-30T05:02:51;9.32;;;3.90;;
28028;SDS011;15345;59.364;18.016;2023-09-30T05:04:10;17.92;;;4.80;;
28028;SDS011;15345;59.364;18.016;2023-09-30T05:05:30;13.63;;;4.28;;
28028;SDS011;15345;59.364;18.016;2023-09-30T05:06:49;14.75;;;4.70;;
28028;SDS011;15345;59.364;18.016;2023-09-30T05:08:08;14.02;;;5.05;;
28028;SDS011;15345;59.364;18.016;2023-09-30T05:09:29;12.15;;;4.32;;
28028;SDS011;15345;59.364;18.016;2023-09-30T05:10:48;14.05;;;4.22;;
28028;SDS011;15345;59.364;18.016;2023-09-30T05:12:07;9.80;;;4.22;;
28028;SDS011;15345;59.364;18.016;2023-09-30T05:13:25;10.50;;;4.38;;
28028;SDS011;15345;59.364;18.016;2023-09-30T05:14:44;12.90;;;4.50;;
28028;SDS011;15345;59.364;18.016;2023-09-30T05:16:03;9.45;;;3.47;;
28028;SDS011;15345;59.364;18.016;2023-09-30T05:17:22;15.02;;;4.22;;
28028;SDS011;15345;59.364;18.016;2023-09-30T05:18:41;12.90;;;4.43;;
28028;SDS011;15345;59.364;18.016;2023-09-30T05:20:00;14.32;;;3.95;;
28028;SDS011;15345;59.364;18.016;2023-09-30T05:21:20;14.32;;;4.25;;
28028;SDS011;15345;59.364;18.016;2023-09-30T05:22:40;14.07;;;3.97;;
28028;SDS011;15345;59.364;18.016;2023-09-30T05:24:04;12.85;;;3.88;;
28028;SDS011;15345;59.364;18.016;2023-09-30T05:25:24;11.00;;;3.67;;
28028;SDS011;15345;59.364;18.016;2023-09-30T05:26:45;11.60;;;3.83;;
28028;SDS011;15345;59.364;18.016;2023-09-30T05:28:04;12.25;;;4.28;;
28028;SDS011;15345;59.364;18.016;2023-09-30T05:29:25;9.52;;;3.60;;
28028;SDS011;15345;59.364;18.016;2023-09-30T05:30:44;10.80;;;3.50;;
28028;SDS011;15345;59.364;18.016;2023-09-30T05:32:04;17.58;;;4.22;;
28028;SDS011;15345;59.364;18.016;2023-09-30T05:33:23;10.50;;;3.97;;
28028;SDS011;15345;59.364;18.016;2023-09-30T05:34:42;11.80;;;3.67;;
28028;SDS011;15345;59.364;18.016;2023-09-30T05:36:02;17.63;;;4.47;;
28028;SDS011;15345;59.364;18.016;2023-09-30T05:37:22;12.23;;;4.00;;
28028;SDS011;15345;59.364;18.016;2023-09-30T05:38:41;13.38;;;3.65;;
28028;SDS011;15345;59.364;18.016;2023-09-30T05:40:00;12.20;;;3.45;;
28028;SDS011;15345;59.364;18.016;2023-09-30T05:41:22;11.02;;;3.88;;
28028;SDS011;15345;59.364;18.016;2023-09-30T05:42:41;11.23;;;3.85;;
28028;SDS011;15345;59.364;18.016;2023-09-30T05:44:02;12.90;;;3.97;;
28028;SDS011;15345;59.364;18.016;2023-09-30T05:45:24;16.05;;;4.07;;
28028;SDS011;15345;59.364;18.016;2023-09-30T05:46:45;17.77;;;3.65;;
28028;SDS011;15345;59.364;18.016;2023-09-30T05:48:04;10.30;;;3.42;;
28028;SDS011;15345;59.364;18.016;2023-09-30T05:49:26;12.30;;;3.40;;
28028;SDS011;15345;59.364;18.016;2023-09-30T05:50:45;13.25;;;4.10;;
28028;SDS011;15345;59.364;18.016;2023-09-30T05:52:04;11.35;;;3.90;;
28028;SDS011;15345;59.364;18.016;2023-09-30T05:53:24;11.82;;;3.80;;
28028;SDS011;15345;59.364;18.016;2023-09-30T05:54:43;17.55;;;4.18;;
28028;SDS011;15345;59.364;18.016;2023-09-30T05:56:03;10.85;;;3.63;;
28028;SDS011;15345;59.364;18.016;2023-09-30T05:57:22;14.43;;;3.70;;
28028;SDS011;15345;59.364;18.016;2023-09-30T05:58:42;10.70;;;3.45;;
28028;SDS011;15345;59.364;18.016;2023-09-30T06:00:01;17.00;;;3.63;;
28028;SDS011;15345;59.364;18.016;2023-09-30T06:01:25;17.98;;;4.03;;
28028;SDS011;15345;59.364;18.016;2023-09-30T06:02:44;9.82;;;3.85;;
28028;SDS011;15345;59.364;18.016;2023-09-30T06:04:03;16.20;;;4.40;;
28028;SDS011;15345;59.364;18.016;2023-09-30T06:05:24;15.93;;;3.60;;
28028;SDS011;15345;59.364;18.016;2023-09-30T06:06:45;13.77;;;3.90;;
28028;SDS011;15345;59.364;18.016;2023-09-30T06:08:04;16.25;;;4.30;;
28028;SDS011;15345;59.364;18.016;2023-09-30T06:09:23;16.23;;;4.32;;
28028;SDS011;15345;59.364;18.016;2023-09-30T06:10:43;15.23;;;3.83;;
28028;SDS011;15345;59.364;18.016;2023-09-30T06:12:02;11.63;;;3.53;;
28028;SDS011;15345;59.364;18.016;2023-09-30T06:13:25;15.18;;;3.40;;
28028;SDS011;15345;59.364;18.016;2023-09-30T06:14:45;11.90;;;3.22;;
28028;SDS011;15345;59.364;18.016;2023-09-30T06:16:05;15.77;;;4.00;;
28028;SDS011;15345;59.364;18.016;2023-09-30T06:17:25;8.65;;;3.15;;
28028;SDS011;15345;59.364;18.016;2023-09-30T06:18:43;12.27;;;3.45;;
28028;SDS011;15345;59.364;18.016;2023-09-30T06:20:04;12.23;;;3.42;;
28028;SDS011;15345;59.364;18.016;2023-09-30T06:21:34;8.80;;;2.85;;
28028;SDS011;15345;59.364;18.016;2023-09-30T06:22:53;11.82;;;3.53;;
28028;SDS011;15345;59.364;18.016;2023-09-30T06:24:12;12.32;;;3.83;;
28028;SDS011;15345;59.364;18.016;2023-09-30T06:25:31;14.50;;;3.63;;
28028;SDS011;15345;59.364;18.016;2023-09-30T06:26:52;11.15;;;3.63;;
28028;SDS011;15345;59.364;18.016;2023-09-30T06:28:11;13.02;;;3.30;;
28028;SDS011;15345;59.364;18.016;2023-09-30T06:29:32;14.90;;;3.85;;
28028;SDS011;15345;59.364;18.016;2023-09-30T06:30:52;13.52;;;3.83;;
28028;SDS011;15345;59.364;18.016;2023-09-30T06:32:11;17.45;;;3.17;;
28028;SDS011;15345;59.364;18.016;2023-09-30T06:33:30;11.10;;;3.40;;
28028;SDS011;15345;59.364;18.016;2023-09-30T06:34:49;13.07;;;3.15;;
28028;SDS011;15345;59.364;18.016;2023-09-30T06:36:11;9.35;;;3.40;;
28028;SDS011;15345;59.364;18.016;2023-09-30T06:37:32;13.90;;;3.75;;
28028;SDS011;15345;59.364;18.016;2023-09-30T06:38:51;14.88;;;3.58;;
28028;SDS011;15345;59.364;18.016;2023-09-30T06:40:11;14.35;;;3.35;;
28028;SDS011;15345;59.364;18.016;2023-09-30T06:41:33;8.93;;;3.23;;
28028;SDS011;15345;59.364;18.016;2023-09-30T06:42:52;12.60;;;3.33;;
28028;SDS011;15345;59.364;18.016;2023-09-30T06:44:11;11.30;;;3.15;;
28028;SDS011;15345;59.364;18.016;2023-09-30T06:45:30;13.05;;;3.70;;
28028;SDS011;15345;59.364;18.016;2023-09-30T06:46:49;15.25;;;4.05;;
28028;SDS011;15345;59.364;18.016;2023-09-30T06:48:09;15.45;;;3.83;;
28028;SDS011;15345;59.364;18.016;2023-09-30T06:49:33;14.55;;;3.63;;
28028;SDS011;15345;59.364;18.016;2023-09-30T06:50:52;13.85;;;3.63;;
28028;SDS011;15345;59.364;18.016;2023-09-30T06:52:11;16.35;;;3.47;;
28028;SDS011;15345;59.364;18.016;2023-09-30T06:53:31;15.82;;;3.92;;
28028;SDS011;15345;59.364;18.016;2023-09-30T06:54:49;13.15;;;3.05;;
28028;SDS011;15345;59.364;18.016;2023-09-30T06:56:11;10.60;;;3.00;;
28028;SDS011;15345;59.364;18.016;2023-09-30T06:57:31;15.48;;;3.55;;
28028;SDS011;15345;59.364;18.016;2023-09-30T06:58:51;10.40;;;2.85;;
28028;SDS011;15345;59.364;18.016;2023-09-30T07:00:10;10.77;;;2.90;;
28028;SDS011;15345;59.364;18.016;2023-09-30T07:01:30;14.30;;;3.60;;
28028;SDS011;15345;59.364;18.016;2023-09-30T07:02:49;11.32;;;2.90;;
28028;SDS011;15345;59.364;18.016;2023-09-30T07:04:08;11.23;;;3.20;;
28028;SDS011;15345;59.364;18.016;2023-09-30T07:05:28;10.35;;;2.80;;
28028;SDS011;15345;59.364;18.016;2023-09-30T07:06:47;14.00;;;3.47;;
28028;SDS011;15345;59.364;18.016;2023-09-30T07:08:06;10.65;;;3.15;;
28028;SDS011;15345;59.364;18.016;2023-09-30T07:09:26;13.07;;;3.00;;
28028;SDS011;15345;59.364;18.016;2023-09-30T07:10:45;11.07;;;3.13;;
28028;SDS011;15345;59.364;18.016;2023-09-30T07:12:11;11.95;;;3.40;;
28028;SDS011;15345;59.364;18.016;2023-09-30T07:13:31;12.25;;;3.08;;
28028;SDS011;15345;59.364;18.016;2023-09-30T07:14:50;19.25;;;3.70;;
28028;SDS011;15345;59.364;18.016;2023-09-30T07:16:09;10.30;;;3.72;;
28028;SDS011;15345;59.364;18.016;2023-09-30T07:17:29;13.32;;;3.67;;
28028;SDS011;15345;59.364;18.016;2023-09-30T07:18:48;12.13;;;2.70;;
28028;SDS011;15345;59.364;18.016;2023-09-30T07:20:09;14.15;;;3.45;;
28028;SDS011;15345;59.364;18.016;2023-09-30T07:21:28;14.63;;;3.35;;
28028;SDS011;15345;59.364;18.016;2023-09-30T07:22:47;15.48;;;3.92;;
28028;SDS011;15345;59.364;18.016;2023-09-30T07:24:06;14.00;;;3.45;;
28028;SDS011;15345;59.364;18.016;2023-09-30T07:25:25;16.40;;;3.90;;
28028;SDS011;15345;59.364;18.016;2023-09-30T07:26:44;16.20;;;4.03;;
28028;SDS011;15345;59.364;18.016;2023-09-30T07:28:03;9.48;;;2.95;;
28028;SDS011;15345;59.364;18.016;2023-09-30T07:29:22;11.93;;;3.50;;
28028;SDS011;15345;59.364;18.016;2023-09-30T07:30:41;13.05;;;3.78;;
28028;SDS011;15345;59.364;18.016;2023-09-30T07:32:00;10.82;;;3.33;;
28028;SDS011;15345;59.364;18.016;2023-09-30T07:33:20;13.57;;;3.05;;
28028;SDS011;15345;59.364;18.016;2023-09-30T07:34:39;10.30;;;3.05;;
28028;SDS011;15345;59.364;18.016;2023-09-30T07:35:58;13.35;;;3.08;;
28028;SDS011;15345;59.364;18.016;2023-09-30T07:37:17;10.23;;;3.03;;
28028;SDS011;15345;59.364;18.016;2023-09-30T07:38:37;13.15;;;2.95;;
28028;SDS011;15345;59.364;18.016;2023-09-30T07:39:56;13.48;;;3.50;;
28028;SDS011;15345;59.364;18.016;2023-09-30T07:41:15;17.98;;;3.70;;
28028;SDS011;15345;59.364;18.016;2023-09-30T07:42:34;11.75;;;3.03;;
28028;SDS011;15345;59.364;18.016;2023-09-30T07:43:53;14.57;;;3.35;;
28028;SDS011;15345;59.364;18.016;2023-09-30T07:45:12;13.68;;;3.80;;
28028;SDS011;15345;59.364;18.016;2023-09-30T07:47:54;11.82;;;3.03;;
28028;SDS011;15345;59.364;18.016;2023-09-30T07:49:13;12.18;;;2.95;;
28028;SDS011;15345;59.364;18.016;2023-09-30T07:50:32;13.27;;;3.38;;